Shoshone, Idaho
Current Conditions -  °F | °C
As of 1:53 PM on Tuesday 25 Nov 2014 (Local Time) from KJER Reporting Station
Overcast Overcast  
Wind Chill: 50°   Ceiling: 3800
Heat Index: 50°   Visibility: 10mi
Dew Point: 38°   Wind: 20mph
Humidity: 63%   Direction: 240°WSW
Pressure: 30.2"   Gusts: NA
Location:  42.94°N, 114.41°W
Report Text: KJER 252053Z AUTO 24017KT 10SM OVC038 10/03 A3020 RMK AO2 SLP230 T01000033 56016
Loading
Personal Weather Stations






























Interactive Weather Map New forecast layout! Learn more

10-Day Weather Forecast

Advertisements
Track Severe Weather on mobile